Time;durP1;ratioP1;P1;durP2;ratioP2;P2;SDS_P1;SDS_P2;PMS_P1;PMS_P2;Temp;Humidity;BMP_temperature;BMP_pressure;BME280_temperature;BME280_humidity;BME280_pressure;Samples;Min_cycle;Max_cycle;Signal;HPM_P1;HPM_P2
2022/08/27 00:00:12;;;;;;;9.68;3.40;;;;;;;20.84;100.00;-24396.38;5011136;28;20650;-74
2022/08/27 00:02:38;;;;;;;6.68;3.53;;;;;;;21.05;100.00;-24402.34;5011426;28;20168;-76
2022/08/27 00:05:04;;;;;;;4.90;3.28;;;;;;;21.06;100.00;-24402.47;5011161;28;20258;-74
2022/08/27 00:07:29;;;;;;;6.80;3.80;;;;;;;21.17;100.00;-24405.38;5011306;28;20575;-71
2022/08/27 00:09:55;;;;;;;5.32;3.28;;;;;;;21.19;100.00;-24405.94;5006422;28;20195;-74
2022/08/27 00:12:21;;;;;;;8.52;3.47;;;;;;;21.01;100.00;-24401.09;4996632;28;20401;-72
2022/08/27 00:14:47;;;;;;;6.70;3.30;;;;;;;21.34;100.00;-24410.09;5011589;28;20211;-74
2022/08/27 00:17:13;;;;;;;7.80;3.53;;;;;;;21.18;100.00;-24405.66;5005239;28;20185;-75
2022/08/27 00:19:39;;;;;;;6.32;3.40;;;;;;;21.02;100.00;-24401.50;5002140;28;20255;-73
2022/08/27 00:22:07;;;;;;;8.32;3.38;;;;;;;20.75;100.00;-24393.88;5004621;28;20639;-75
2022/08/27 00:24:32;;;;;;;6.28;3.63;;;;;;;20.93;100.00;-24399.00;4998148;28;20192;-72
2022/08/27 00:26:58;;;;;;;4.53;3.30;;;;;;;21.00;100.00;-24400.81;4997780;28;20188;-72
2022/08/27 00:29:25;;;;;;;8.95;3.40;;;;;;;20.44;100.00;-24385.41;4995828;28;20184;-73
2022/08/27 00:31:51;;;;;;;7.38;4.05;;;;;;;20.51;100.00;-24387.50;4998551;28;20271;-77
2022/08/27 00:34:17;;;;;;;4.90;3.38;;;;;;;20.80;100.00;-24395.25;5001845;28;20261;-75
2022/08/27 00:36:44;;;;;;;10.73;4.00;;;;;;;20.56;100.00;-24388.88;5003246;28;20192;-77
2022/08/27 00:39:10;;;;;;;8.95;4.15;;;;;;;20.96;100.00;-24399.69;4996473;28;20571;-73
2022/08/27 00:41:37;;;;;;;5.22;3.80;;;;;;;20.58;100.00;-24389.44;5004999;28;20188;-76
2022/08/27 00:44:05;;;;;;;5.60;3.53;;;;;;;20.81;100.00;-24395.53;4985663;28;20311;-75
2022/08/27 00:46:37;;;;;;;9.02;3.58;;;;;;;20.47;100.00;-24386.38;4992560;28;20200;-75
2022/08/27 00:49:30;;;;;;;5.75;3.60;;;;;;;20.64;100.00;-24391.09;5003709;28;20191;-73
2022/08/27 00:52:01;;;;;;;11.80;4.10;;;;;;;20.42;100.00;-24384.84;5001765;28;20257;-74
2022/08/27 00:54:28;;;;;;;6.90;3.60;;;;;;;20.37;100.00;-24383.47;5014324;28;20226;-73
2022/08/27 00:56:56;;;;;;;5.72;3.42;;;;;;;20.63;100.00;-24390.69;5002217;28;20188;-75
2022/08/27 00:59:28;;;;;;;6.00;3.60;;;;;;;20.33;100.00;-24382.34;5008418;28;20210;-75
2022/08/27 01:04:41;;;;;;;4.65;2.97;;;;;;;20.33;100.00;-24382.34;5001617;28;20179;-72
2022/08/27 01:07:08;;;;;;;7.90;4.30;;;;;;;20.61;100.00;-24390.25;5021161;28;20696;-72
2022/08/27 01:09:35;;;;;;;9.98;3.72;;;;;;;20.29;100.00;-24381.50;4996330;28;20643;-75
2022/08/27 01:12:01;;;;;;;6.07;3.53;;;;;;;20.31;100.00;-24381.94;5003761;28;20568;-74
2022/08/27 01:14:27;;;;;;;4.97;3.45;;;;;;;20.39;100.00;-24384.03;5006010;28;20200;-76
2022/08/27 01:16:56;;;;;;;11.85;4.03;;;;;;;20.45;100.00;-24385.81;5014565;28;20179;-75
2022/08/27 01:19:27;;;;;;;6.10;3.20;;;;;;;20.83;100.00;-24396.09;4992867;28;20230;-77
2022/08/27 01:22:33;;;;;;;9.20;3.97;;;;;;;20.63;100.00;-24390.81;4993179;28;20242;-74
2022/08/27 01:25:07;;;;;;;8.80;3.60;;;;;;;20.22;100.00;-24379.56;5012446;28;20197;-76
2022/08/27 01:27:33;;;;;;;6.72;3.60;;;;;;;20.70;100.00;-24392.75;5013946;28;20211;-75
2022/08/27 01:29:59;;;;;;;9.65;3.55;;;;;;;20.47;100.00;-24386.38;5007890;28;20275;-74
2022/08/27 01:32:32;;;;;;;6.57;3.65;;;;;;;20.54;100.00;-24388.31;5012734;28;20179;-71
2022/08/27 01:34:59;;;;;;;5.50;3.47;;;;;;;20.97;100.00;-24400.13;5012072;28;20188;-71
2022/08/27 01:37:26;;;;;;;8.10;3.72;;;;;;;20.79;100.00;-24395.13;5007404;28;20195;-76
2022/08/27 01:39:54;;;;;;;6.60;3.67;;;;;;;20.69;100.00;-24392.34;5013951;28;20180;-71
2022/08/27 01:42:29;;;;;;;7.60;4.00;;;;;;;20.75;100.00;-24393.88;5012745;28;20190;-75
2022/08/27 01:45:13;;;;;;;6.55;3.60;;;;;;;20.76;100.00;-24394.28;5009045;28;20241;-73
2022/08/27 01:47:39;;;;;;;9.50;3.00;;;;;;;20.05;100.00;-24374.84;5001333;28;20191;-74
2022/08/27 01:50:09;;;;;;;6.57;4.05;;;;;;;20.69;100.00;-24392.34;5003690;28;20662;-71
2022/08/27 01:52:35;;;;;;;6.30;3.58;;;;;;;20.51;100.00;-24387.34;5003976;28;20288;-73
2022/08/27 01:55:02;;;;;;;5.22;3.38;;;;;;;20.02;100.00;-24374.00;5008602;28;20267;-72
2022/08/27 01:57:28;;;;;;;6.22;3.67;;;;;;;20.35;100.00;-24382.91;5006983;28;20249;-74
2022/08/27 01:59:56;;;;;;;9.45;3.78;;;;;;;20.34;100.00;-24382.63;5006949;28;20188;-74
2022/08/27 02:02:22;;;;;;;6.32;3.30;;;;;;;20.18;100.00;-24378.31;5007263;28;20241;-73
2022/08/27 02:04:47;;;;;;;6.18;3.70;;;;;;;19.96;100.00;-24372.34;5011112;28;20189;-76
2022/08/27 02:07:13;;;;;;;7.30;4.38;;;;;;;20.04;100.00;-24374.56;4991541;28;20462;-76
2022/08/27 02:09:38;;;;;;;5.90;3.50;;;;;;;19.91;100.00;-24370.81;5004470;28;20244;-75
2022/08/27 02:12:04;;;;;;;5.43;3.33;;;;;;;19.56;100.00;-24361.38;5003610;28;20266;-75
2022/08/27 02:14:30;;;;;;;6.50;3.75;;;;;;;19.48;100.00;-24359.13;5006593;28;20239;-77
2022/08/27 02:16:55;;;;;;;9.55;4.43;;;;;;;19.71;100.00;-24365.41;5007029;28;20183;-74
2022/08/27 02:19:21;;;;;;;8.13;4.00;;;;;;;19.52;100.00;-24360.25;4989012;28;20660;-74
2022/08/27 02:21:48;;;;;;;9.88;3.97;;;;;;;19.60;100.00;-24362.34;5012787;28;20184;-73
2022/08/27 02:24:13;;;;;;;5.88;3.92;;;;;;;19.53;100.00;-24360.38;5007872;28;20243;-72
2022/08/27 02:26:39;;;;;;;8.52;4.35;;;;;;;19.34;100.00;-24355.25;5012135;28;20554;-75
2022/08/27 02:29:04;;;;;;;8.18;3.88;;;;;;;19.71;100.00;-24365.41;5004692;28;20180;-76
2022/08/27 02:31:30;;;;;;;8.18;3.85;;;;;;;19.53;100.00;-24360.38;5012841;28;20180;-72
2022/08/27 02:33:56;;;;;;;7.40;3.65;;;;;;;19.30;100.00;-24354.28;5012719;28;20220;-74
2022/08/27 02:36:23;;;;;;;7.03;3.70;;;;;;;19.52;100.00;-24360.13;5000637;28;20177;-76
2022/08/27 02:38:48;;;;;;;6.22;3.92;;;;;;;19.35;100.00;-24355.53;5001296;28;20184;-75
2022/08/27 02:41:15;;;;;;;8.10;3.30;;;;;;;19.86;100.00;-24369.56;5001616;28;20310;-74
2022/08/27 02:43:41;;;;;;;6.05;3.55;;;;;;;19.46;100.00;-24358.59;5003960;28;20184;-74
2022/08/27 02:46:07;;;;;;;6.70;3.70;;;;;;;19.83;100.00;-24368.88;4984981;28;20180;-73
2022/08/27 02:48:35;;;;;;;10.02;4.05;;;;;;;19.89;100.00;-24370.41;5010601;28;20184;-71
2022/08/27 02:51:00;;;;;;;7.55;3.97;;;;;;;20.03;100.00;-24374.28;5008357;28;20218;-74
2022/08/27 02:53:27;;;;;;;7.97;3.97;;;;;;;19.99;100.00;-24373.19;4999887;28;20232;-72
2022/08/27 02:55:52;;;;;;;13.68;4.10;;;;;;;19.62;100.00;-24362.91;5003372;28;20181;-74
2022/08/27 02:58:18;;;;;;;5.18;3.45;;;;;;;20.10;100.00;-24376.09;4996990;28;20187;-76
2022/08/27 03:00:43;;;;;;;8.90;3.50;;;;;;;20.08;100.00;-24375.69;5003829;28;20259;-74
2022/08/27 03:03:09;;;;;;;7.50;4.00;;;;;;;19.63;100.00;-24363.16;5007620;28;20184;-75
2022/08/27 03:05:36;;;;;;;5.82;3.80;;;;;;;19.57;100.00;-24361.66;5005329;28;20184;-76
2022/08/27 03:08:02;;;;;;;9.40;3.88;;;;;;;19.67;100.00;-24364.28;5008443;28;20188;-76
2022/08/27 03:10:27;;;;;;;7.30;4.05;;;;;;;19.74;100.00;-24366.22;4998819;28;20185;-75
2022/08/27 03:12:53;;;;;;;9.38;4.68;;;;;;;20.08;100.00;-24375.69;5006149;28;20191;-74
2022/08/27 03:15:19;;;;;;;9.98;3.92;;;;;;;19.94;100.00;-24371.78;5000192;28;20219;-72
2022/08/27 03:20:29;;;;;;;8.80;3.83;;;;;;;19.61;100.00;-24362.63;5005303;28;20693;-75
2022/08/27 03:22:54;;;;;;;6.00;4.05;;;;;;;19.67;100.00;-24364.28;5006147;28;20180;-73
2022/08/27 03:25:20;;;;;;;6.30;3.40;;;;;;;19.55;100.00;-24361.09;5009606;28;20187;-71
2022/08/27 03:27:46;;;;;;;8.70;4.13;;;;;;;19.90;100.00;-24370.53;5000264;28;20180;-75
2022/08/27 03:30:15;;;;;;;5.22;3.55;;;;;;;19.86;100.00;-24369.56;4997598;28;20191;-74
2022/08/27 03:32:41;;;;;;;6.93;3.75;;;;;;;19.59;100.00;-24362.06;4979595;28;20810;-76
2022/08/27 03:35:07;;;;;;;8.70;3.47;;;;;;;19.60;100.00;-24362.47;5007172;28;20176;-74
2022/08/27 03:37:33;;;;;;;7.60;3.88;;;;;;;19.45;100.00;-24358.16;5011438;28;20581;-73
2022/08/27 03:39:58;;;;;;;7.00;4.57;;;;;;;19.20;100.00;-24351.34;5005123;28;20665;-73
2022/08/27 03:42:24;;;;;;;7.97;3.80;;;;;;;18.98;100.00;-24345.38;5004264;28;20180;-72
2022/08/27 03:44:50;;;;;;;10.63;3.65;;;;;;;19.37;100.00;-24356.22;5005358;28;20618;-74
2022/08/27 03:47:16;;;;;;;7.05;3.80;;;;;;;19.24;100.00;-24352.47;5006551;28;20208;-75
2022/08/27 03:49:41;;;;;;;9.32;3.88;;;;;;;19.74;100.00;-24366.22;5005152;28;20196;-76
2022/08/27 03:52:07;;;;;;;9.15;4.00;;;;;;;19.82;100.00;-24368.47;5003362;28;20172;-73
2022/08/27 03:54:37;;;;;;;7.10;3.90;;;;;;;19.53;100.00;-24360.53;5007651;28;20669;-77
2022/08/27 03:57:03;;;;;;;4.70;3.22;;;;;;;19.73;100.00;-24365.94;5007151;28;20283;-75
2022/08/27 03:59:29;;;;;;;6.07;3.70;;;;;;;19.48;100.00;-24359.13;5005381;28;20635;-74
2022/08/27 04:01:55;;;;;;;5.95;3.30;;;;;;;20.03;100.00;-24374.28;5009563;28;20195;-73
2022/08/27 04:04:25;;;;;;;7.50;4.10;;;;;;;20.07;100.00;-24375.25;5002434;28;20204;-75
2022/08/27 04:06:54;;;;;;;8.25;3.70;;;;;;;20.01;100.00;-24373.72;5011766;28;20180;-78
2022/08/27 04:09:19;;;;;;;4.68;3.28;;;;;;;19.85;100.00;-24369.44;4833965;28;20189;-77
2022/08/27 04:11:45;;;;;;;7.10;4.18;;;;;;;20.11;100.00;-24376.38;5004440;28;20565;-73
2022/08/27 04:14:10;;;;;;;4.28;3.38;;;;;;;20.21;100.00;-24379.16;5011345;28;20333;-76
2022/08/27 04:16:39;;;;;;;4.82;3.70;;;;;;;20.14;100.00;-24377.34;5010580;28;20168;-77
2022/08/27 04:19:05;;;;;;;5.93;3.70;;;;;;;20.34;100.00;-24382.78;5009863;28;20305;-70
2022/08/27 04:21:32;;;;;;;6.93;3.88;;;;;;;20.35;100.00;-24383.03;4997469;28;20184;-69
2022/08/27 04:23:59;;;;;;;6.10;3.83;;;;;;;20.86;100.00;-24397.06;5015675;28;20523;-68
2022/08/27 04:26:25;;;;;;;9.50;3.83;;;;;;;21.08;100.00;-24403.16;5009123;28;20271;-72
2022/08/27 04:28:51;;;;;;;6.03;3.70;;;;;;;21.62;100.00;-24417.72;5012297;28;20180;-69
2022/08/27 04:31:17;;;;;;;8.38;3.95;;;;;;;22.09;100.00;-24430.59;5013555;28;20176;-72
2022/08/27 04:33:43;;;;;;;6.85;4.00;;;;;;;21.80;100.00;-24422.84;5014796;28;20625;-68
2022/08/27 04:36:09;;;;;;;5.32;3.53;;;;;;;21.98;100.00;-24427.84;5012026;28;20196;-68
2022/08/27 04:38:36;;;;;;;7.65;3.67;;;;;;;22.07;100.00;-24430.19;5011737;28;20199;-74
2022/08/27 04:41:19;;;;;;;5.50;3.58;;;;;;;22.24;100.00;-24434.75;5004647;28;20247;-74
2022/08/27 04:43:49;;;;;;;8.48;3.70;;;;;;;22.50;100.00;-24441.81;5011881;28;20171;-78
2022/08/27 04:46:19;;;;;;;7.43;3.70;;;;;;;22.37;100.00;-24438.34;5014570;28;20172;-76
2022/08/27 04:48:44;;;;;;;10.43;4.25;;;;;;;;;;5007132;28;20188;-78
2022/08/27 04:51:10;;;;;;;8.23;3.15;;;;;;;21.73;100.00;-24420.91;4999705;28;20596;-74
2022/08/27 04:53:35;;;;;;;5.72;3.35;;;;;;;21.77;100.00;-24421.88;5000514;28;20295;-78
2022/08/27 04:56:01;;;;;;;7.82;3.70;;;;;;;21.32;100.00;-24409.53;4998657;28;20335;-74
2022/08/27 04:58:27;;;;;;;3.65;2.88;;;;;;;21.34;100.00;-24410.09;4999094;28;20193;-77
2022/08/27 05:00:55;;;;;;;6.15;3.45;;;;;;;21.55;100.00;-24415.91;4998126;28;20185;-76
2022/08/27 05:03:23;;;;;;;6.53;4.30;;;;;;;21.26;100.00;-24407.88;4998774;28;20667;-75
2022/08/27 05:05:49;;;;;;;9.50;3.75;;;;;;;21.40;100.00;-24411.91;4999627;28;20192;-76
2022/08/27 05:08:16;;;;;;;4.97;3.30;;;;;;;21.28;100.00;-24408.56;5000074;28;20188;-75
2022/08/27 05:10:43;;;;;;;8.40;4.22;;;;;;;21.46;100.00;-24413.56;4999642;28;20241;-75
2022/08/27 05:13:10;;;;;;;5.80;3.70;;;;;;;21.15;100.00;-24405.09;5000299;28;20254;-77
2022/08/27 05:15:37;;;;;;;7.10;3.88;;;;;;;21.21;100.00;-24406.63;4998767;28;20683;-76
2022/08/27 05:18:04;;;;;;;6.15;3.85;;;;;;;21.01;100.00;-24401.09;4999929;28;20187;-77
2022/08/27 05:20:31;;;;;;;5.68;3.53;;;;;;;21.40;100.00;-24411.75;4999831;28;20714;-73
2022/08/27 05:22:57;;;;;;;6.75;3.65;;;;;;;20.87;100.00;-24397.34;4999365;28;20173;-74
2022/08/27 05:25:23;;;;;;;9.63;4.10;;;;;;;21.00;100.00;-24400.81;4999758;28;20199;-74
2022/08/27 05:27:49;;;;;;;6.53;4.07;;;;;;;21.32;100.00;-24409.69;4999110;28;20966;-73
2022/08/27 05:30:14;;;;;;;7.95;4.13;;;;;;;21.05;100.00;-24402.19;4997997;28;20222;-72
2022/08/27 05:32:40;;;;;;;5.03;3.58;;;;;;;21.13;100.00;-24404.56;4998166;28;20231;-73
2022/08/27 05:35:08;;;;;;;5.50;3.42;;;;;;;21.28;100.00;-24408.56;5006029;28;20716;-73
2022/08/27 05:37:33;;;;;;;9.07;3.92;;;;;;;21.47;100.00;-24413.69;5003864;28;20181;-72
2022/08/27 05:39:59;;;;;;;5.78;3.80;;;;;;;21.56;100.00;-24416.34;5000990;28;20199;-72
2022/08/27 05:42:25;;;;;;;6.38;3.83;;;;;;;21.48;100.00;-24414.13;5003754;28;20196;-73
2022/08/27 05:44:51;;;;;;;6.10;4.05;;;;;;;21.88;100.00;-24424.91;5004517;28;20184;-72
2022/08/27 05:47:17;;;;;;;6.75;4.57;;;;;;;21.98;100.00;-24427.69;5006395;28;20180;-73
2022/08/27 05:49:44;;;;;;;9.52;4.60;;;;;;;21.98;100.00;-24427.69;5007078;28;20184;-73
2022/08/27 05:52:11;;;;;;;8.32;4.32;;;;;;;22.13;100.00;-24431.72;5007113;28;20211;-74
2022/08/27 05:54:37;;;;;;;8.07;4.55;;;;;;;22.29;100.00;-24436.13;5006565;28;20690;-74
2022/08/27 05:57:03;;;;;;;10.45;3.88;;;;;;;22.61;100.00;-24445.00;5005325;28;20196;-74
2022/08/27 06:02:13;;;;;;;8.70;4.38;;;;;;;22.82;100.00;-24450.81;5001664;28;20624;-74
2022/08/27 06:04:39;;;;;;;9.18;3.67;;;;;;;23.03;100.00;-24456.47;4992812;28;20188;-75
2022/08/27 06:07:08;;;;;;;10.02;4.20;;;;;;;23.28;100.00;-24463.38;4995494;28;20238;-75
2022/08/27 06:09:33;;;;;;;6.45;4.28;;;;;;;23.56;100.00;-24470.84;5001550;28;20184;-76
2022/08/27 06:12:00;;;;;;;7.03;4.15;;;;;;;24.09;100.00;-24485.47;4991488;28;20192;-74
2022/08/27 06:14:26;;;;;;;7.85;3.63;;;;;;;24.31;100.00;-24491.25;4991910;28;20260;-74
2022/08/27 06:16:51;;;;;;;7.63;4.43;;;;;;;24.58;97.44;-24498.84;5006853;28;20578;-74
2022/08/27 06:19:17;;;;;;;7.20;3.92;;;;;;;24.73;92.95;-24502.69;5013096;28;20227;-74
2022/08/27 06:21:44;;;;;;;8.52;3.42;;;;;;;24.94;88.62;-24508.47;5006559;28;20677;-74
2022/08/27 06:24:11;;;;;;;7.03;3.72;;;;;;;25.05;86.39;-24511.66;5003337;28;20192;-73
2022/08/27 06:26:38;;;;;;;8.00;3.50;;;;;;;25.16;85.71;-24514.41;4996670;28;20177;-76
2022/08/27 06:29:05;;;;;;;5.63;3.60;;;;;;;25.07;86.56;-24512.06;4979310;28;20336;-74
2022/08/27 06:31:31;;;;;;;6.00;3.92;;;;;;;25.40;83.46;-24521.16;4998007;28;20204;-75
2022/08/27 06:33:59;;;;;;;6.28;3.58;;;;;;;25.66;83.41;-24528.03;4998040;28;20621;-75
2022/08/27 06:36:25;;;;;;;6.70;3.63;;;;;;;25.36;83.61;-24519.91;4998436;28;20176;-76
2022/08/27 06:38:51;;;;;;;6.40;3.67;;;;;;;25.33;84.26;-24519.22;4997890;28;20267;-72
2022/08/27 06:41:20;;;;;;;6.28;3.35;;;;;;;25.11;82.02;-24513.16;4979839;28;20619;-73
2022/08/27 06:43:45;;;;;;;8.50;3.88;;;;;;;25.93;84.05;-24535.59;4997482;28;20180;-74
2022/08/27 06:46:14;;;;;;;6.13;3.85;;;;;;;26.20;84.76;-24542.88;4998444;28;20184;-75
2022/08/27 06:48:42;;;;;;;6.82;3.75;;;;;;;26.29;81.17;-24545.22;4979257;28;20219;-74
2022/08/27 06:51:13;;;;;;;6.70;3.47;;;;;;;26.46;77.94;-24549.75;4979042;28;20188;-75
2022/08/27 06:53:39;;;;;;;9.20;3.75;;;;;;;26.84;75.81;-24560.16;4996532;28;20209;-74
2022/08/27 06:56:05;;;;;;;7.50;3.80;;;;;;;26.68;76.51;-24555.78;4998464;28;20176;-72
2022/08/27 06:58:32;;;;;;;6.60;3.80;;;;;;;27.02;74.17;-24565.13;4997379;28;20183;-75
2022/08/27 07:00:58;;;;;;;4.35;2.90;;;;;;;27.24;73.07;-24571.00;4996095;28;20184;-76
2022/08/27 07:03:23;;;;;;;5.07;3.13;;;;;;;27.01;72.81;-24564.84;4998428;28;20188;-73
2022/08/27 07:05:49;;;;;;;6.55;3.58;;;;;;;27.27;70.44;-24571.84;5004308;28;20181;-74
2022/08/27 07:08:14;;;;;;;7.38;3.42;;;;;;;27.29;67.97;-24572.38;4988247;28;20192;-73
2022/08/27 07:10:40;;;;;;;6.03;3.40;;;;;;;27.61;68.46;-24581.00;5002249;28;20184;-74
2022/08/27 07:13:05;;;;;;;4.40;3.40;;;;;;;27.52;66.71;-24578.69;5011687;28;20195;-74
2022/08/27 07:15:31;;;;;;;3.70;3.08;;;;;;;27.41;66.38;-24575.53;5011720;28;20164;-76
2022/08/27 07:17:57;;;;;;;6.38;3.03;;;;;;;27.79;66.11;-24585.81;5008412;28;20702;-77
2022/08/27 07:20:22;;;;;;;5.20;3.60;;;;;;;27.41;64.51;-24575.66;5011999;28;20243;-72
2022/08/27 07:22:48;;;;;;;8.35;4.20;;;;;;;27.75;63.18;-24584.72;5009435;28;20186;-72
2022/08/27 07:25:19;;;;;;;6.30;3.63;;;;;;;28.18;63.28;-24596.50;5007375;28;20267;-75
2022/08/27 07:27:45;;;;;;;6.20;3.53;;;;;;;28.28;64.92;-24599.22;5011466;28;20617;-74
2022/08/27 07:30:12;;;;;;;6.25;3.92;;;;;;;27.91;62.24;-24589.25;5011645;28;20164;-74
2022/08/27 07:32:38;;;;;;;3.65;2.83;;;;;;;28.21;59.06;-24597.19;5005271;28;20220;-73
2022/08/27 07:35:08;;;;;;;5.10;2.92;;;;;;;28.52;59.56;-24605.78;5009053;28;20251;-74
2022/08/27 07:37:34;;;;;;;6.63;3.58;;;;;;;28.63;58.91;-24608.53;5006525;28;20191;-74
2022/08/27 07:40:01;;;;;;;5.93;3.42;;;;;;;28.64;59.98;-24608.94;5000221;28;20218;-69
2022/08/27 07:45:12;;;;;;;4.63;3.30;;;;;;;28.98;55.28;-24618.25;4991773;28;20246;-71
2022/08/27 07:47:37;;;;;;;4.50;2.83;;;;;;;29.24;55.27;-24625.19;4996536;28;20559;-73
2022/08/27 07:50:03;;;;;;;4.75;3.13;;;;;;;29.68;56.67;-24636.94;5011291;28;20178;-71
2022/08/27 07:52:29;;;;;;;5.60;3.25;;;;;;;29.80;55.17;-24640.34;5005539;28;20674;-71
2022/08/27 07:54:54;;;;;;;8.73;3.63;;;;;;;30.00;52.06;-24645.53;5003427;28;20203;-71
2022/08/27 07:57:20;;;;;;;6.50;3.28;;;;;;;29.93;53.00;-24643.63;5015741;28;20175;-70
2022/08/27 07:59:47;;;;;;;5.45;3.17;;;;;;;30.18;51.95;-24650.59;5009010;28;20646;-71
2022/08/27 08:02:12;;;;;;;6.20;3.47;;;;;;;30.29;50.03;-24653.59;5015792;28;20280;-72
2022/08/27 08:04:38;;;;;;;6.25;3.47;;;;;;;30.19;50.31;-24650.72;5003095;28;20270;-72
2022/08/27 08:07:03;;;;;;;5.50;3.00;;;;;;;30.33;51.33;-24654.53;5009244;28;20183;-73
2022/08/27 08:09:31;;;;;;;6.43;3.08;;;;;;;30.36;48.29;-24655.34;5014843;28;20186;-75
2022/08/27 08:11:56;;;;;;;5.07;2.50;;;;;;;30.33;49.04;-24654.41;5014630;28;20199;-75
2022/08/27 08:14:21;;;;;;;6.07;3.40;;;;;;;30.40;47.64;-24656.44;5014905;28;20249;-71
2022/08/27 08:16:47;;;;;;;5.57;3.00;;;;;;;30.24;47.97;-24652.22;5014838;28;20262;-68
2022/08/27 08:19:12;;;;;;;4.03;2.78;;;;;;;30.44;46.95;-24657.53;5014776;28;20712;-69
2022/08/27 08:21:38;;;;;;;6.32;3.30;;;;;;;30.64;47.15;-24662.84;5015062;28;20178;-68
2022/08/27 08:24:04;;;;;;;7.78;3.08;;;;;;;30.70;47.77;-24664.63;5014788;28;20583;-62
2022/08/27 08:26:30;;;;;;;5.18;3.20;;;;;;;31.07;47.88;-24674.44;5014381;28;20656;-67
2022/08/27 08:28:56;;;;;;;8.23;2.80;;;;;;;30.85;50.22;-24668.44;5014965;28;20287;-67
2022/08/27 08:31:22;;;;;;;7.80;3.00;;;;;;;30.79;48.91;-24666.81;5010813;28;20584;-65
2022/08/27 08:33:49;;;;;;;5.85;2.90;;;;;;;30.69;48.37;-24664.22;5014430;28;20191;-66
2022/08/27 08:36:16;;;;;;;5.68;2.97;;;;;;;30.29;49.27;-24653.44;5014688;28;20171;-66
2022/08/27 08:38:43;;;;;;;6.68;2.90;;;;;;;30.77;49.62;-24666.41;4991512;28;20536;-65
2022/08/27 08:41:21;;;;;;;4.07;2.50;;;;;;;31.02;49.34;-24673.06;4995078;28;20186;-68
2022/08/27 08:43:50;;;;;;;5.28;2.80;;;;;;;31.08;48.13;-24674.69;4994794;28;20180;-67
2022/08/27 08:46:25;;;;;;;7.25;2.70;;;;;;;30.94;48.86;-24671.03;4994773;28;20255;-67
2022/08/27 08:48:55;;;;;;;3.28;2.38;;;;;;;31.32;48.84;-24681.22;5006798;28;20733;-67
2022/08/27 08:51:39;;;;;;;7.63;3.03;;;;;;;31.46;49.77;-24685.03;4994865;28;20266;-67
2022/08/27 08:54:16;;;;;;;4.82;3.25;;;;;;;31.79;46.86;-24693.75;4994831;28;20257;-68
2022/08/27 08:56:50;;;;;;;5.32;3.15;;;;;;;31.64;45.57;-24689.78;4994662;28;20179;-65
2022/08/27 08:59:25;;;;;;;7.28;3.65;;;;;;;31.53;45.54;-24686.81;4995119;28;20230;-65
2022/08/27 09:01:51;;;;;;;7.28;2.60;;;;;;;31.34;45.49;-24681.78;4994856;28;20245;-67
2022/08/27 09:04:16;;;;;;;3.55;2.40;;;;;;;31.43;47.39;-24684.09;4997811;28;20267;-66
2022/08/27 09:06:45;;;;;;;4.05;2.70;;;;;;;31.63;49.07;-24689.41;5012210;28;20226;-66
2022/08/27 09:09:24;;;;;;;5.40;2.90;;;;;;;31.99;47.63;-24699.31;5004685;28;20191;-67
2022/08/27 09:12:17;;;;;;;4.55;2.60;;;;;;;32.32;46.46;-24708.13;5005497;28;20555;-68
2022/08/27 09:14:57;;;;;;;6.32;2.50;;;;;;;32.45;42.34;-24711.53;5006290;28;20210;-66
2022/08/27 09:17:23;;;;;;;7.43;3.08;;;;;;;32.62;43.10;-24716.00;5008977;28;20184;-69
2022/08/27 09:19:48;;;;;;;5.35;2.70;;;;;;;32.22;44.56;-24705.41;5000578;28;20704;-66
2022/08/27 09:22:17;;;;;;;4.63;3.00;;;;;;;32.30;44.73;-24707.59;5003597;28;20179;-66
2022/08/27 09:25:07;;;;;;;3.80;2.50;;;;;;;32.38;45.71;-24709.75;5005905;28;20179;-67
2022/08/27 09:27:35;;;;;;;3.80;2.60;;;;;;;32.06;45.85;-24700.94;5000961;28;20275;-65
2022/08/27 09:30:07;;;;;;;4.90;2.63;;;;;;;32.22;45.65;-24705.41;5005535;28;20520;-68
2022/08/27 09:32:33;;;;;;;4.53;2.50;;;;;;;32.57;45.65;-24714.66;4987780;28;20265;-65
2022/08/27 09:35:02;;;;;;;4.32;2.60;;;;;;;32.21;44.06;-24705.00;5006245;28;20207;-71
2022/08/27 09:37:30;;;;;;;5.07;2.80;;;;;;;32.51;42.19;-24713.03;4998694;28;20334;-68
2022/08/27 09:40:48;;;;;;;3.92;2.38;;;;;;;32.53;42.18;-24713.69;5002109;28;20705;-68
2022/08/27 09:43:27;;;;;;;5.78;2.90;;;;;;;32.55;42.48;-24714.09;4996191;28;20222;-69
2022/08/27 09:45:59;;;;;;;5.10;2.90;;;;;;;32.12;43.63;-24702.56;5006322;28;20643;-66
2022/08/27 09:48:34;;;;;;;3.53;2.40;;;;;;;32.45;41.15;-24711.53;5003507;28;20317;-67
2022/08/27 09:51:05;;;;;;;5.65;2.67;;;;;;;32.46;38.97;-24711.66;5009048;28;20176;-67
2022/08/27 09:53:39;;;;;;;4.28;2.30;;;;;;;32.36;40.80;-24709.09;5004199;28;20199;-69
2022/08/27 09:56:07;;;;;;;9.30;2.63;;;;;;;32.43;42.12;-24710.97;5013699;28;20168;-70
2022/08/27 09:58:42;;;;;;;3.95;2.60;;;;;;;32.53;40.33;-24713.69;5006748;28;20191;-65
2022/08/27 10:01:20;;;;;;;4.43;2.60;;;;;;;32.41;40.70;-24710.44;5008647;28;20182;-65
2022/08/27 10:03:46;;;;;;;3.53;2.40;;;;;;;32.26;41.45;-24706.38;5005507;28;20195;-68
2022/08/27 10:06:12;;;;;;;7.13;2.42;;;;;;;32.52;41.33;-24713.28;5002694;28;20262;-68
2022/08/27 10:08:44;;;;;;;4.00;2.65;;;;;;;32.81;38.87;-24721.28;5004744;28;20687;-68
2022/08/27 10:11:18;;;;;;;4.15;2.38;;;;;;;32.81;37.95;-24721.28;5013709;28;20182;-68
2022/08/27 10:14:06;;;;;;;5.35;2.85;;;;;;;32.84;38.76;-24721.97;5013112;28;20187;-72
2022/08/27 10:17:02;;;;;;;7.25;2.40;;;;;;;32.76;39.99;-24719.81;5006500;28;20191;-68
2022/08/27 10:19:53;;;;;;;3.60;2.25;;;;;;;32.88;36.92;-24722.94;5003268;28;20682;-67
2022/08/27 10:22:38;;;;;;;4.65;2.55;;;;;;;32.54;36.74;-24713.84;4985519;28;20222;-65
2022/08/27 10:25:22;;;;;;;7.00;2.70;;;;;;;32.78;38.16;-24720.34;5013442;28;20241;-64
2022/08/27 10:27:50;;;;;;;4.75;2.78;;;;;;;32.91;39.55;-24723.88;5013003;28;20210;-64
2022/08/27 10:30:19;;;;;;;3.40;2.40;;;;;;;32.46;40.37;-24711.66;5012801;28;20186;-65
2022/08/27 10:33:06;;;;;;;3.22;2.40;;;;;;;33.03;42.05;-24727.13;5012856;28;20168;-66
2022/08/27 10:36:27;;;;;;;2.88;2.35;;;;;;;32.72;39.70;-24718.84;5006758;28;20190;-66
2022/08/27 10:38:59;;;;;;;3.83;2.65;;;;;;;33.09;38.63;-24728.63;4937351;28;20721;-66
2022/08/27 10:41:40;;;;;;;4.07;2.53;;;;;;;33.04;37.95;-24727.41;5012492;28;20570;-67
2022/08/27 10:44:39;;;;;;;3.97;2.60;;;;;;;33.25;37.39;-24733.09;5012871;28;20708;-68
2022/08/27 10:47:27;;;;;;;6.75;2.40;;;;;;;33.42;38.23;-24737.56;4828137;28;21349;-67
2022/08/27 10:50:04;;;;;;;3.63;2.40;;;;;;;33.47;38.28;-24738.91;5012618;28;20203;-66
2022/08/27 10:52:44;;;;;;;4.90;2.65;;;;;;;33.28;37.68;-24733.91;4999676;28;20246;-67
2022/08/27 10:55:21;;;;;;;4.57;2.40;;;;;;;32.92;35.82;-24724.00;5003180;28;20209;-68
2022/08/27 10:57:59;;;;;;;3.42;2.10;;;;;;;33.35;37.83;-24735.53;5002725;28;20571;-66
2022/08/27 11:00:32;;;;;;;7.32;2.50;;;;;;;33.11;39.25;-24729.28;5001685;28;20676;-66
2022/08/27 11:03:17;;;;;;;4.57;2.65;;;;;;;33.28;38.76;-24733.75;5011273;28;20183;-69
2022/08/27 11:05:48;;;;;;;4.55;2.38;;;;;;;33.10;35.92;-24729.03;5004115;28;20180;-67
2022/08/27 11:08:32;;;;;;;5.63;2.75;;;;;;;32.81;36.90;-24721.28;4993614;28;20182;-66
2022/08/27 11:11:04;;;;;;;4.50;2.53;;;;;;;32.99;35.96;-24726.03;5012162;28;20217;-70
2022/08/27 11:13:45;;;;;;;4.45;2.40;;;;;;;33.14;35.61;-24729.97;5012030;28;20198;-70
2022/08/27 11:16:31;;;;;;;4.05;2.28;;;;;;;33.30;36.85;-24734.44;5011047;28;20255;-67
2022/08/27 11:19:01;;;;;;;3.88;2.63;;;;;;;33.53;37.74;-24740.41;5009210;28;20218;-68
2022/08/27 11:22:05;;;;;;;7.22;2.72;;;;;;;33.94;37.59;-24751.38;5007238;28;20642;-64
2022/08/27 11:24:58;;;;;;;4.40;2.28;;;;;;;33.92;36.03;-24750.97;4999953;28;20202;-68
2022/08/27 11:27:29;;;;;;;4.82;3.05;;;;;;;34.00;35.36;-24753.13;5002937;28;20666;-67
2022/08/27 11:30:02;;;;;;;3.13;2.20;;;;;;;34.01;35.91;-24753.25;5005092;28;20199;-69
2022/08/27 11:32:54;;;;;;;3.78;2.63;;;;;;;34.11;36.68;-24755.97;5011485;28;20563;-69
2022/08/27 11:35:32;;;;;;;4.65;3.03;;;;;;;34.15;36.37;-24757.03;4984129;28;20192;-65
2022/08/27 11:38:06;;;;;;;4.78;2.58;;;;;;;33.91;34.29;-24750.56;5003940;28;20185;-64
2022/08/27 11:40:48;;;;;;;3.85;2.40;;;;;;;33.50;35.92;-24739.72;5005534;28;20187;-65
2022/08/27 11:43:18;;;;;;;5.00;2.53;;;;;;;33.63;36.49;-24743.25;5000206;28;20214;-65